Stations météo

réclame
Mon MeteoGroup
Catanzaro, Italie (16365): Température de l'air & dewpoint: 16.07.2018 14:00:00 - 22.07.2018 14:00:00 (CEST)Catanzaro, Italie (16365): Vitesse du vent: 16.07.2018 14:00:00 - 22.07.2018 14:00:00 (CEST)Catanzaro, Italie (16365): Direction du vent: 16.07.2018 14:00:00 - 22.07.2018 14:00:00 (CEST)Catanzaro, Italie (16365): reduced air pressure: 16.07.2018 14:00:00 - 22.07.2018 14:00:00 (CEST)Catanzaro, Italie (16365): Quantités de précipitations: 16.07.2018 14:00:00 - 22.07.2018 14:00:00 (CEST)
Date & Time tt [°C] td [°C] ff [km/h] ff [knt] dd ppp [hPa] rr [mm]
22.07.2018 14:00:00 - - - - - - -
22.07.2018 13:00:00 28,2 15,4 13 7 W 1011,3 -
22.07.2018 12:00:00 28,3 14,5 13 7 W 1011,3 -
22.07.2018 11:00:00 27,7 16,0 18 10 W 1011,3 -
22.07.2018 10:00:00 26,1 16,0 15 8 WNW 1011,4 -
22.07.2018 09:00:00 25,8 13,6 13 7 W 1010,8 -
22.07.2018 08:00:00 24,6 12,8 18 10 W 1010,8 0,0
22.07.2018 07:00:00 27,5 7,9 13 7 W 1010,8 -
22.07.2018 06:00:00 27,4 8,3 15 8 WNW 1010,1 -
22.07.2018 05:00:00 27,9 7,2 13 7 WNW 1010,2 -
22.07.2018 04:00:00 28,7 4,9 5 3 NW 1010,0 -
22.07.2018 03:00:00 28,6 4,2 8 4 NW 1011,1 -
22.07.2018 02:00:00 26,7 10,8 5 3 WSW 1011,6 0,0
22.07.2018 01:00:00 25,9 12,7 5 3 N 1012,4 -
22.07.2018 00:00:00 26,4 12,1 0 0 N 1012,9 -
21.07.2018 23:00:00 24,9 13,7 5 3 N 1013,2 -
21.07.2018 22:00:00 23,3 15,5 0 0 N 1013,8 -
21.07.2018 21:00:00 23,5 16,2 4 2 NNE 1013,6 -
21.07.2018 20:00:00 24,4 16,1 4 2 ENE 1013,6 0,0
21.07.2018 19:00:00 25,4 15,9 2 1 SE 1013,5 -
21.07.2018 18:00:00 26,3 15,9 13 7 SSE 1013,8 -
21.07.2018 17:00:00 26,4 15,1 8 4 SSE 1013,9 -
21.07.2018 16:00:00 26,9 13,6 8 4 S 1014,1 -
21.07.2018 15:00:00 27,4 13,3 15 8 S 1014,2 -
21.07.2018 14:00:00 28,1 10,8 21 11 S 1014,3 0,0
21.07.2018 13:00:00 29,8 10,4 15 8 SSW 1014,1 -
21.07.2018 12:00:00 28,3 14,1 2 1 W 1014,2 -
21.07.2018 11:00:00 26,8 14,5 9 5 W 1014,3 -
21.07.2018 10:00:00 25,0 12,8 16 9 W 1014,3 -
21.07.2018 09:00:00 23,7 12,0 18 10 WNW 1014,3 -
21.07.2018 08:00:00 22,1 11,7 18 10 WNW 1014,0 0,0
21.07.2018 07:00:00 20,9 12,5 16 9 WNW 1013,9 -
21.07.2018 06:00:00 20,3 11,5 18 10 W 1014,0 -
21.07.2018 05:00:00 20,5 14,5 18 10 WNW 1014,2 -
21.07.2018 04:00:00 20,9 14,2 22 12 WNW 1013,8 -
21.07.2018 03:00:00 21,0 14,6 18 10 WNW 1014,1 -
21.07.2018 02:00:00 21,2 15,7 15 8 W 1014,5 0,0
21.07.2018 01:00:00 21,5 17,0 21 11 WNW 1014,6 -
21.07.2018 00:00:00 21,9 16,8 22 12 WNW 1014,8 -
20.07.2018 23:00:00 22,3 16,5 22 12 WNW 1014,4 -
20.07.2018 22:00:00 22,2 17,3 24 13 WNW 1014,2 -
20.07.2018 21:00:00 22,2 18,1 13 7 NW 1014,1 -
20.07.2018 20:00:00 22,9 18,4 16 9 W 1013,3 0,0
20.07.2018 19:00:00 24,0 18,1 34 18 WSW 1013,1 -
20.07.2018 18:00:00 25,0 17,6 24 13 WNW 1013,0 -
20.07.2018 17:00:00 25,1 18,0 18 10 W 1013,3 -
20.07.2018 16:00:00 25,1 17,7 22 12 WNW 1013,5 -
20.07.2018 15:00:00 25,7 18,1 26 14 WNW 1013,7 -
20.07.2018 14:00:00 25,8 17,9 11 6 W 1013,6 0,0
20.07.2018 13:00:00 25,4 17,5 21 11 W 1014,0 -
20.07.2018 12:00:00 25,0 17,9 15 8 WNW 1014,0 -
20.07.2018 11:00:00 24,6 18,0 16 9 WNW 1013,9 -
20.07.2018 10:00:00 23,9 17,8 18 10 WNW 1013,7 -
20.07.2018 09:00:00 22,9 16,8 18 10 W 1013,8 -
20.07.2018 08:00:00 21,9 15,4 22 12 WNW 1013,5 0,0
20.07.2018 07:00:00 21,2 15,0 21 11 WNW 1013,4 -
20.07.2018 06:00:00 21,0 14,8 16 9 WNW 1013,3 -
20.07.2018 05:00:00 21,2 15,4 15 8 WNW 1013,3 -
20.07.2018 04:00:00 21,4 16,1 16 9 WNW 1013,5 -
20.07.2018 03:00:00 21,6 16,9 24 13 WNW 1013,6 -
20.07.2018 02:00:00 21,7 16,6 24 13 W 1013,7 0,0
20.07.2018 01:00:00 22,2 16,4 16 9 W 1013,6 -
20.07.2018 00:00:00 22,3 18,0 22 12 WNW 1013,8 -
19.07.2018 23:00:00 22,4 18,5 18 10 WNW 1013,7 -
19.07.2018 22:00:00 22,5 18,6 22 12 WNW 1013,5 -
19.07.2018 21:00:00 23,4 18,4 8 4 WNW 1013,0 -
19.07.2018 20:00:00 24,3 18,4 9 5 W 1012,8 0,0
19.07.2018 19:00:00 25,3 18,4 11 6 W 1012,7 -
19.07.2018 18:00:00 25,1 18,2 5 3 W 1012,7 -
19.07.2018 17:00:00 25,4 17,0 15 8 SSW 1013,1 -
19.07.2018 16:00:00 25,9 17,7 5 3 W 1013,2 -
19.07.2018 15:00:00 25,8 17,9 24 13 WSW 1013,1 -
19.07.2018 14:00:00 26,5 18,6 15 8 W 1012,8 0,0
19.07.2018 13:00:00 25,9 18,3 11 6 W 1013,4 -
19.07.2018 12:00:00 25,3 17,9 11 6 WNW 1013,7 -
19.07.2018 11:00:00 24,4 17,3 13 7 WNW 1013,8 -
19.07.2018 10:00:00 23,4 16,6 16 9 WNW 1013,9 -
19.07.2018 09:00:00 23,0 14,7 28 15 WNW 1013,9 -
19.07.2018 08:00:00 21,5 15,3 31 17 WNW 1013,8 0,0
19.07.2018 07:00:00 21,0 14,1 18 10 WNW 1013,9 -
19.07.2018 06:00:00 20,6 14,9 26 14 WNW 1014,0 -
19.07.2018 05:00:00 20,6 15,1 28 15 WNW 1014,0 -
19.07.2018 04:00:00 20,7 15,2 18 10 NW 1014,3 -
19.07.2018 03:00:00 20,9 15,4 21 11 WNW 1014,3 -
19.07.2018 02:00:00 20,9 16,0 8 4 WNW 1014,5 0,0
19.07.2018 01:00:00 21,2 16,3 18 10 WNW 1014,5 -
19.07.2018 00:00:00 21,5 16,4 28 15 NW 1014,9 -
18.07.2018 23:00:00 21,6 16,9 21 11 WNW 1014,8 -
18.07.2018 22:00:00 21,8 18,1 15 8 WNW 1014,6 -
18.07.2018 21:00:00 22,0 18,1 18 10 WNW 1014,0 -
18.07.2018 20:00:00 22,6 17,2 18 10 WNW 1013,6 0,0
18.07.2018 19:00:00 23,7 17,1 22 12 WNW 1013,3 -
18.07.2018 18:00:00 24,1 16,8 34 18 WNW 1013,0 -
18.07.2018 17:00:00 25,0 16,1 15 8 W 1013,0 -
18.07.2018 16:00:00 25,0 16,4 26 14 WNW 1013,0 -
18.07.2018 15:00:00 25,3 15,0 37 20 WNW 1012,7 -
18.07.2018 14:00:00 25,5 17,1 15 8 W 1012,8 0,0
18.07.2018 13:00:00 25,2 16,5 24 13 WNW 1013,0 -
18.07.2018 12:00:00 25,5 16,8 22 12 W 1013,1 -
18.07.2018 11:00:00 24,7 17,1 21 11 W 1012,9 -
18.07.2018 10:00:00 23,7 17,4 13 7 W 1012,9 -
18.07.2018 09:00:00 22,4 17,5 13 7 WNW 1013,4 -
18.07.2018 08:00:00 21,5 17,8 16 9 WNW 1013,1 0,0
18.07.2018 07:00:00 21,0 17,5 11 6 WNW 1012,9 -
18.07.2018 06:00:00 20,6 17,3 15 8 WNW 1012,9 -
18.07.2018 05:00:00 20,6 17,2 22 12 WNW 1012,3 -
18.07.2018 04:00:00 20,8 16,7 26 14 NW 1012,3 -
18.07.2018 03:00:00 20,7 16,9 18 10 NW 1012,5 -
18.07.2018 02:00:00 20,7 17,1 18 10 WNW 1012,6 0,0
18.07.2018 01:00:00 21,2 15,4 16 9 NW 1012,6 -
18.07.2018 00:00:00 21,7 14,7 5 3 NNW 1012,8 -
17.07.2018 23:00:00 21,2 15,0 22 12 NW 1012,3 -
17.07.2018 22:00:00 21,9 15,4 5 3 WNW 1012,1 -
17.07.2018 21:00:00 21,7 16,1 18 10 WNW 1011,0 -
17.07.2018 20:00:00 22,0 16,4 24 13 WNW 1010,6 0,0
17.07.2018 19:00:00 22,7 16,4 11 6 WNW 1010,5 -
17.07.2018 18:00:00 23,1 16,1 13 7 NNE 1010,4 -
17.07.2018 17:00:00 23,9 15,6 16 9 W 1010,2 -
17.07.2018 16:00:00 24,6 16,0 22 12 W 1010,1 -
17.07.2018 15:00:00 25,2 14,9 31 17 W 1009,8 -
17.07.2018 14:00:00 25,1 14,8 28 15 W 1009,6 0,0
17.07.2018 13:00:00 24,2 16,6 34 18 W 1010,0 -
17.07.2018 12:00:00 25,1 17,5 22 12 W 1009,7 -
17.07.2018 11:00:00 24,6 17,8 16 9 W 1010,0 -
17.07.2018 10:00:00 24,2 18,3 24 13 W 1009,8 -
17.07.2018 09:00:00 23,8 17,9 15 8 W 1010,2 -
17.07.2018 08:00:00 23,2 17,4 5 3 WNW 1010,7 0,0
17.07.2018 07:00:00 23,5 14,9 18 10 WNW 1010,7 -
17.07.2018 06:00:00 24,7 11,2 16 9 WNW 1010,3 -
17.07.2018 05:00:00 26,0 8,0 18 10 WNW 1010,5 -
17.07.2018 04:00:00 27,0 9,3 8 4 WNW 1010,5 -
17.07.2018 03:00:00 27,1 9,0 11 6 WNW 1011,1 -
17.07.2018 02:00:00 26,5 9,3 0 0 N 1011,5 0,0
17.07.2018 01:00:00 26,4 10,5 8 4 WSW 1011,9 -
17.07.2018 00:00:00 27,5 9,8 4 2 ESE 1011,5 -
16.07.2018 23:00:00 25,3 12,8 0 0 N 1012,0 -
16.07.2018 22:00:00 23,2 18,5 31 17 WNW 1014,4 -
16.07.2018 21:00:00 23,3 19,2 24 13 WNW 1014,0 -
16.07.2018 20:00:00 24,3 19,1 11 6 W 1013,9 0,0
16.07.2018 19:00:00 25,8 16,8 24 13 WNW 1013,1 -
16.07.2018 18:00:00 28,0 16,6 18 10 WNW 1012,3 -
16.07.2018 17:00:00 28,7 16,2 15 8 W 1012,3 -
16.07.2018 16:00:00 28,8 17,3 13 7 W 1012,6 -
16.07.2018 15:00:00 28,1 18,7 18 10 W 1013,2 -
16.07.2018 14:00:00 27,0 18,5 28 15 WNW 1013,7 0,0

tt = Température de l'air
td = dewpoint
ff = Vitesse du vent
dd = Direction du vent
ppp = reduced air pressure
rr = Quantités de précipitations

stations d'obs. à proximité